sensor_id;sensor_type;location;lat;lon;timestamp;pressure;altitude;pressure_sealevel;temperature;humidity
27864;BME280;15980;51.092;13.916;2023-04-22T00:07:38;98522.63;;;6.45;80.39
27864;BME280;15980;51.092;13.916;2023-04-22T00:17:39;98516.19;;;6.32;81.23
27864;BME280;15980;51.092;13.916;2023-04-22T00:27:39;98515.19;;;6.11;82.07
27864;BME280;15980;51.092;13.916;2023-04-22T00:37:40;98496.81;;;5.94;82.94
27864;BME280;15980;51.092;13.916;2023-04-22T00:47:40;98499.16;;;5.78;83.40
27864;BME280;15980;51.092;13.916;2023-04-22T00:57:41;98486.78;;;5.72;83.75
27864;BME280;15980;51.092;13.916;2023-04-22T01:07:42;98481.84;;;5.74;83.50
27864;BME280;15980;51.092;13.916;2023-04-22T01:17:42;98480.88;;;5.79;83.56
27864;BME280;15980;51.092;13.916;2023-04-22T01:27:43;98475.59;;;5.74;82.83
27864;BME280;15980;51.092;13.916;2023-04-22T01:37:44;98468.78;;;5.62;82.57
27864;BME280;15980;51.092;13.916;2023-04-22T01:47:44;98482.03;;;5.55;83.23
27864;BME280;15980;51.092;13.916;2023-04-22T01:57:44;98470.97;;;5.52;83.91
27864;BME280;15980;51.092;13.916;2023-04-22T02:07:44;98459.25;;;5.43;83.73
27864;BME280;15980;51.092;13.916;2023-04-22T02:17:46;98448.41;;;5.51;83.74
27864;BME280;15980;51.092;13.916;2023-04-22T02:27:46;98451.50;;;5.89;83.83
27864;BME280;15980;51.092;13.916;2023-04-22T02:37:46;98452.38;;;6.07;83.01
27864;BME280;15980;51.092;13.916;2023-04-22T02:47:47;98445.91;;;6.03;83.82
27864;BME280;15980;51.092;13.916;2023-04-22T02:57:47;98440.84;;;6.10;83.24
27864;BME280;15980;51.092;13.916;2023-04-22T03:07:47;98434.94;;;6.43;83.49
27864;BME280;15980;51.092;13.916;2023-04-22T03:17:48;98429.03;;;6.75;82.35
27864;BME280;15980;51.092;13.916;2023-04-22T03:27:48;98422.13;;;6.78;81.65
27864;BME280;15980;51.092;13.916;2023-04-22T03:37:49;98430.47;;;6.73;81.40
27864;BME280;15980;51.092;13.916;2023-04-22T03:47:50;98434.47;;;6.75;80.98
27864;BME280;15980;51.092;13.916;2023-04-22T03:57:50;98426.78;;;6.95;80.22
27864;BME280;15980;51.092;13.916;2023-04-22T04:07:50;98417.06;;;7.32;79.10
27864;BME280;15980;51.092;13.916;2023-04-22T04:17:50;98417.31;;;7.56;77.43
27864;BME280;15980;51.092;13.916;2023-04-22T04:27:51;98415.63;;;7.72;77.19
27864;BME280;15980;51.092;13.916;2023-04-22T04:37:51;98407.03;;;7.91;75.85
27864;BME280;15980;51.092;13.916;2023-04-22T04:47:51;98420.88;;;8.15;75.63
27864;BME280;15980;51.092;13.916;2023-04-22T04:57:51;98418.41;;;8.52;75.12
27864;BME280;15980;51.092;13.916;2023-04-22T05:07:52;98413.13;;;8.89;74.06
27864;BME280;15980;51.092;13.916;2023-04-22T05:17:53;98427.75;;;9.26;74.27
27864;BME280;15980;51.092;13.916;2023-04-22T05:27:53;98425.22;;;9.66;73.05
27864;BME280;15980;51.092;13.916;2023-04-22T05:37:53;98428.19;;;10.10;71.81
27864;BME280;15980;51.092;13.916;2023-04-22T05:47:53;98435.91;;;10.68;68.76
27864;BME280;15980;51.092;13.916;2023-04-22T05:57:54;98430.84;;;11.11;68.09
27864;BME280;15980;51.092;13.916;2023-04-22T06:07:54;98421.63;;;11.47;66.22
27864;BME280;15980;51.092;13.916;2023-04-22T06:17:54;98427.16;;;11.94;63.45
27864;BME280;15980;51.092;13.916;2023-04-22T06:27:55;98435.34;;;12.41;60.92
27864;BME280;15980;51.092;13.916;2023-04-22T06:37:55;98438.19;;;12.80;58.80
27864;BME280;15980;51.092;13.916;2023-04-22T06:47:55;98437.31;;;13.14;56.26
27864;BME280;15980;51.092;13.916;2023-04-22T06:57:55;98437.88;;;13.43;55.78
27864;BME280;15980;51.092;13.916;2023-04-22T07:07:56;98449.88;;;13.73;56.03
27864;BME280;15980;51.092;13.916;2023-04-22T07:17:56;98435.34;;;13.99;56.29
27864;BME280;15980;51.092;13.916;2023-04-22T07:27:56;98439.63;;;14.20;54.24
27864;BME280;15980;51.092;13.916;2023-04-22T07:37:57;98442.09;;;14.51;52.77
27864;BME280;15980;51.092;13.916;2023-04-22T07:47:57;98432.25;;;14.80;51.45
27864;BME280;15980;51.092;13.916;2023-04-22T07:57:58;98426.31;;;15.12;51.43
27864;BME280;15980;51.092;13.916;2023-04-22T08:07:58;98431.31;;;15.32;50.31
27864;BME280;15980;51.092;13.916;2023-04-22T08:17:58;98417.75;;;15.57;50.83
27864;BME280;15980;51.092;13.916;2023-04-22T08:27:59;98430.00;;;15.97;50.08
27864;BME280;15980;51.092;13.916;2023-04-22T08:37:59;98423.44;;;16.16;50.84
27864;BME280;15980;51.092;13.916;2023-04-22T08:48:00;98409.47;;;16.53;50.39
27864;BME280;15980;51.092;13.916;2023-04-22T08:58:02;98413.56;;;16.73;48.58
27864;BME280;15980;51.092;13.916;2023-04-22T09:08:03;98404.63;;;17.12;48.09
27864;BME280;15980;51.092;13.916;2023-04-22T09:18:04;98403.88;;;17.25;46.02
27864;BME280;15980;51.092;13.916;2023-04-22T09:28:04;98394.44;;;17.44;45.60
27864;BME280;15980;51.092;13.916;2023-04-22T09:38:07;98386.19;;;17.87;45.90
27864;BME280;15980;51.092;13.916;2023-04-22T09:48:10;98377.47;;;17.92;43.74
27864;BME280;15980;51.092;13.916;2023-04-22T09:58:12;98357.22;;;18.06;43.78
27864;BME280;15980;51.092;13.916;2023-04-22T10:08:14;98346.09;;;18.31;44.41
27864;BME280;15980;51.092;13.916;2023-04-22T10:18:22;98340.94;;;18.33;43.80
27864;BME280;15980;51.092;13.916;2023-04-22T10:28:27;98330.94;;;18.57;43.43
27864;BME280;15980;51.092;13.916;2023-04-22T10:38:27;98320.19;;;18.73;42.21
27864;BME280;15980;51.092;13.916;2023-04-22T10:48:46;98320.91;;;18.88;41.83
27864;BME280;15980;51.092;13.916;2023-04-22T10:58:48;98307.56;;;19.31;42.24
27864;BME280;15980;51.092;13.916;2023-04-22T11:08:49;98311.72;;;19.64;41.29
27864;BME280;15980;51.092;13.916;2023-04-22T11:18:49;98298.16;;;19.69;40.37
27864;BME280;15980;51.092;13.916;2023-04-22T11:28:50;98280.50;;;19.87;39.82
27864;BME280;15980;51.092;13.916;2023-04-22T11:38:54;98294.78;;;19.89;40.02
27864;BME280;15980;51.092;13.916;2023-04-22T11:49:10;98275.81;;;20.18;39.89
27864;BME280;15980;51.092;13.916;2023-04-22T11:59:10;98265.78;;;20.24;40.00
27864;BME280;15980;51.092;13.916;2023-04-22T12:09:11;98270.16;;;20.25;40.22
27864;BME280;15980;51.092;13.916;2023-04-22T12:19:11;98260.88;;;20.35;39.98
27864;BME280;15980;51.092;13.916;2023-04-22T12:29:11;98249.47;;;20.60;39.11
27864;BME280;15980;51.092;13.916;2023-04-22T12:39:12;98247.31;;;20.71;39.49
27864;BME280;15980;51.092;13.916;2023-04-22T12:49:12;98242.56;;;20.98;38.96
27864;BME280;15980;51.092;13.916;2023-04-22T12:59:13;98232.59;;;20.70;38.30
27864;BME280;15980;51.092;13.916;2023-04-22T13:09:13;98216.91;;;20.80;38.54
27864;BME280;15980;51.092;13.916;2023-04-22T13:19:13;98212.53;;;20.83;38.51
27864;BME280;15980;51.092;13.916;2023-04-22T13:29:14;98204.44;;;20.92;37.93
27864;BME280;15980;51.092;13.916;2023-04-22T13:39:14;98200.97;;;20.81;39.59
27864;BME280;15980;51.092;13.916;2023-04-22T13:49:14;98200.19;;;20.80;39.95
27864;BME280;15980;51.092;13.916;2023-04-22T13:59:15;98185.94;;;20.75;37.83
27864;BME280;15980;51.092;13.916;2023-04-22T14:09:15;98175.88;;;20.81;37.06
27864;BME280;15980;51.092;13.916;2023-04-22T14:19:15;98164.47;;;20.72;38.71
27864;BME280;15980;51.092;13.916;2023-04-22T14:29:16;98150.28;;;20.89;38.75
27864;BME280;15980;51.092;13.916;2023-04-22T14:39:16;98144.66;;;20.66;39.29
27864;BME280;15980;51.092;13.916;2023-04-22T14:49:17;98142.34;;;20.61;39.60
27864;BME280;15980;51.092;13.916;2023-04-22T14:59:17;98128.72;;;20.93;39.13
27864;BME280;15980;51.092;13.916;2023-04-22T15:09:17;98127.25;;;21.55;38.19
27864;BME280;15980;51.092;13.916;2023-04-22T15:19:17;98122.78;;;21.81;36.25
27864;BME280;15980;51.092;13.916;2023-04-22T15:29:18;98119.25;;;21.97;37.23
27864;BME280;15980;51.092;13.916;2023-04-22T15:39:19;98103.31;;;21.78;36.09
27864;BME280;15980;51.092;13.916;2023-04-22T15:49:19;98096.53;;;21.55;37.31
27864;BME280;15980;51.092;13.916;2023-04-22T15:59:20;98092.97;;;21.55;38.50
27864;BME280;15980;51.092;13.916;2023-04-22T16:09:20;98080.13;;;21.14;39.26
27864;BME280;15980;51.092;13.916;2023-04-22T16:19:20;98078.72;;;20.25;40.97
27864;BME280;15980;51.092;13.916;2023-04-22T16:29:21;98064.13;;;19.50;43.08
27864;BME280;15980;51.092;13.916;2023-04-22T16:39:21;98050.38;;;18.98;44.15
27864;BME280;15980;51.092;13.916;2023-04-22T16:49:21;98035.59;;;18.60;45.06
27864;BME280;15980;51.092;13.916;2023-04-22T16:59:21;98036.13;;;18.44;46.78
27864;BME280;15980;51.092;13.916;2023-04-22T17:09:22;98024.47;;;18.60;45.89
27864;BME280;15980;51.092;13.916;2023-04-22T17:19:22;98023.00;;;18.48;47.67
27864;BME280;15980;51.092;13.916;2023-04-22T17:29:22;98027.34;;;17.94;48.74
27864;BME280;15980;51.092;13.916;2023-04-22T17:39:23;98035.06;;;17.47;49.88
27864;BME280;15980;51.092;13.916;2023-04-22T17:49:24;98032.78;;;17.06;51.85
27864;BME280;15980;51.092;13.916;2023-04-22T17:59:24;98037.56;;;16.52;53.88
27864;BME280;15980;51.092;13.916;2023-04-22T18:09:25;98041.03;;;15.89;57.00
27864;BME280;15980;51.092;13.916;2023-04-22T18:19:25;98040.72;;;15.21;59.83
27864;BME280;15980;51.092;13.916;2023-04-22T18:29:25;98054.53;;;14.63;61.58
27864;BME280;15980;51.092;13.916;2023-04-22T18:39:25;98055.31;;;14.23;61.91
27864;BME280;15980;51.092;13.916;2023-04-22T18:49:26;98066.00;;;13.87;63.00
27864;BME280;15980;51.092;13.916;2023-04-22T18:59:26;98076.19;;;13.49;64.05
27864;BME280;15980;51.092;13.916;2023-04-22T19:09:26;98065.97;;;13.20;64.26
27864;BME280;15980;51.092;13.916;2023-04-22T19:19:27;98064.81;;;12.98;64.67
27864;BME280;15980;51.092;13.916;2023-04-22T19:29:28;98062.28;;;12.86;65.55
27864;BME280;15980;51.092;13.916;2023-04-22T19:39:29;98066.88;;;12.78;65.83
27864;BME280;15980;51.092;13.916;2023-04-22T19:49:29;98052.75;;;12.80;65.31
27864;BME280;15980;51.092;13.916;2023-04-22T19:59:30;98044.22;;;12.88;65.32
27864;BME280;15980;51.092;13.916;2023-04-22T20:09:31;98035.69;;;12.97;64.75
27864;BME280;15980;51.092;13.916;2023-04-22T20:19:32;98033.06;;;13.04;63.81
27864;BME280;15980;51.092;13.916;2023-04-22T20:29:33;98030.28;;;13.31;61.49
27864;BME280;15980;51.092;13.916;2023-04-22T20:39:34;98027.25;;;13.73;59.60
27864;BME280;15980;51.092;13.916;2023-04-22T20:49:36;98015.75;;;14.04;57.60
27864;BME280;15980;51.092;13.916;2023-04-22T20:59:36;98010.34;;;14.19;56.37
27864;BME280;15980;51.092;13.916;2023-04-22T21:09:36;98009.34;;;14.37;54.71
27864;BME280;15980;51.092;13.916;2023-04-22T21:19:37;98003.84;;;14.41;54.98
27864;BME280;15980;51.092;13.916;2023-04-22T21:29:38;98002.75;;;14.45;54.94
27864;BME280;15980;51.092;13.916;2023-04-22T21:39:38;98000.75;;;14.42;54.95
27864;BME280;15980;51.092;13.916;2023-04-22T21:49:39;97994.00;;;14.40;55.27
27864;BME280;15980;51.092;13.916;2023-04-22T21:59:39;97992.34;;;14.32;56.49
27864;BME280;15980;51.092;13.916;2023-04-22T22:09:40;97984.09;;;14.32;56.24
27864;BME280;15980;51.092;13.916;2023-04-22T22:19:40;97978.91;;;14.30;56.89
27864;BME280;15980;51.092;13.916;2023-04-22T22:29:41;97975.81;;;14.35;56.81
27864;BME280;15980;51.092;13.916;2023-04-22T22:39:41;97986.13;;;14.42;56.52
27864;BME280;15980;51.092;13.916;2023-04-22T22:49:42;97976.31;;;14.44;56.61
27864;BME280;15980;51.092;13.916;2023-04-22T22:59:43;97973.94;;;14.43;57.28
27864;BME280;15980;51.092;13.916;2023-04-22T23:09:43;97965.69;;;14.47;57.39
27864;BME280;15980;51.092;13.916;2023-04-22T23:19:44;97960.16;;;14.47;57.97
27864;BME280;15980;51.092;13.916;2023-04-22T23:29:44;97953.06;;;14.45;57.40
27864;BME280;15980;51.092;13.916;2023-04-22T23:39:45;97947.91;;;14.44;58.29
27864;BME280;15980;51.092;13.916;2023-04-22T23:49:46;97945.53;;;14.42;58.73
27864;BME280;15980;51.092;13.916;2023-04-22T23:59:46;97935.66;;;14.41;58.24
